Portada
METAR-TAF:

METAR-TAF

Aeroports :

Aeroport de Basilea-Mulhouse-Friburg

Basilea-Mülhausen-Friburg, França

latitud: 47-36N, longitud: 007-31E, altitud: 270 m

Observació

L'informe es va fer fa 31 minuts, a les 16:30 UTC
Vent calma
Temperatura 2°C
Humitat 80%
Pressió 1025 hPa
Visibilitat 10 km o més
sense núvols per sota de 1500 mi sense presència de cumulonimbus.

METAR: LFSB 101630Z 00000KT CAVOK 02/M01 Q1025 NOSIG

Hora: 18:01 (17:01 UTC)

Pronòstic

L'informe es va fer fa 6 hores i 1 minuts, a les 11:00 UTC
Pronòstic vàlid del 10 a les 12 UTC al 11 a les 12 UTC
Vent 2 kt amb direcció variable
Visibilitat 10 km o més
Escasses núvols a una alçada de 2500 ft
Evolucionant progressivament
l' 10 a les 20 UTC al 10 a les 22 UTC
Vent 6 kt del Sud/Sud-Est
Temporalment
l' 11 a les 09 UTC al 11 a les 12 UTC
pluja

TAF: LFSB 101100Z 1012/1112 VRB02KT 9999 FEW025 BECMG 1020/1022 16006KT TEMPO 1109/1112 -RA

Observacions i pronòstics meteorològics de més de 4000 aeroports (METAR i TAF).

Les estacions disponibles són els punts grocs i vermells al mapa.

Posi el ratolí al punt desitjat per veure el nom de l'estació.

Feu clic per veure les observacions i els pronòstics meteorològics.

Per canviar el mapa: feu clic els botons verds amb una creu de color negre per apropar; al botó verd amb un guió per allunyar la imatge; o en les fletxes verdes per a mapes adjacents.


METAR-TAF: